sensor_id;sensor_type;location;lat;lon;timestamp;P1;durP1;ratioP1;P2;durP2;ratioP2
9240;SDS011;53485;49.326;9.738;2022-08-01T00:02:14;3.63;;;1.30;;
9240;SDS011;53485;49.326;9.738;2022-08-01T00:04:42;1.30;;;1.10;;
9240;SDS011;53485;49.326;9.738;2022-08-01T00:07:09;0.93;;;0.90;;
9240;SDS011;53485;49.326;9.738;2022-08-01T00:09:37;0.90;;;0.90;;
9240;SDS011;53485;49.326;9.738;2022-08-01T00:12:04;1.23;;;0.90;;
9240;SDS011;53485;49.326;9.738;2022-08-01T00:14:32;1.13;;;1.03;;
9240;SDS011;53485;49.326;9.738;2022-08-01T00:16:59;1.50;;;0.80;;
9240;SDS011;53485;49.326;9.738;2022-08-01T00:19:27;1.23;;;1.00;;
9240;SDS011;53485;49.326;9.738;2022-08-01T00:21:54;1.20;;;1.10;;
9240;SDS011;53485;49.326;9.738;2022-08-01T00:24:21;1.03;;;1.03;;
9240;SDS011;53485;49.326;9.738;2022-08-01T00:26:49;0.93;;;0.93;;
9240;SDS011;53485;49.326;9.738;2022-08-01T00:29:16;1.73;;;1.13;;
9240;SDS011;53485;49.326;9.738;2022-08-01T00:31:43;1.00;;;0.90;;
9240;SDS011;53485;49.326;9.738;2022-08-01T00:34:11;1.00;;;1.00;;
9240;SDS011;53485;49.326;9.738;2022-08-01T00:36:38;2.17;;;0.83;;
9240;SDS011;53485;49.326;9.738;2022-08-01T00:39:06;2.30;;;1.10;;
9240;SDS011;53485;49.326;9.738;2022-08-01T00:41:33;1.63;;;1.00;;
9240;SDS011;53485;49.326;9.738;2022-08-01T00:44:03;1.17;;;0.90;;
9240;SDS011;53485;49.326;9.738;2022-08-01T00:46:28;1.30;;;1.20;;
9240;SDS011;53485;49.326;9.738;2022-08-01T00:48:55;4.23;;;1.30;;
9240;SDS011;53485;49.326;9.738;2022-08-01T00:51:22;1.20;;;0.90;;
9240;SDS011;53485;49.326;9.738;2022-08-01T00:53:49;3.00;;;1.00;;
9240;SDS011;53485;49.326;9.738;2022-08-01T00:56:16;1.00;;;0.90;;
9240;SDS011;53485;49.326;9.738;2022-08-01T00:58:42;1.27;;;1.07;;
9240;SDS011;53485;49.326;9.738;2022-08-01T01:01:09;1.33;;;1.23;;
9240;SDS011;53485;49.326;9.738;2022-08-01T01:03:37;1.83;;;1.10;;
9240;SDS011;53485;49.326;9.738;2022-08-01T01:06:13;0.80;;;0.80;;
9240;SDS011;53485;49.326;9.738;2022-08-01T01:08:40;1.00;;;1.00;;
9240;SDS011;53485;49.326;9.738;2022-08-01T01:11:10;1.70;;;1.07;;
9240;SDS011;53485;49.326;9.738;2022-08-01T01:13:41;2.30;;;1.17;;
9240;SDS011;53485;49.326;9.738;2022-08-01T01:16:06;1.27;;;0.97;;
9240;SDS011;53485;49.326;9.738;2022-08-01T01:18:33;1.13;;;1.03;;
9240;SDS011;53485;49.326;9.738;2022-08-01T01:21:03;0.90;;;0.90;;
9240;SDS011;53485;49.326;9.738;2022-08-01T01:23:34;1.10;;;1.00;;
9240;SDS011;53485;49.326;9.738;2022-08-01T01:27:21;1.17;;;1.07;;
9240;SDS011;53485;49.326;9.738;2022-08-01T01:29:00;1.03;;;0.93;;
9240;SDS011;53485;49.326;9.738;2022-08-01T01:31:26;1.30;;;0.90;;
9240;SDS011;53485;49.326;9.738;2022-08-01T01:33:53;2.97;;;0.87;;
9240;SDS011;53485;49.326;9.738;2022-08-01T01:36:20;3.20;;;1.10;;
9240;SDS011;53485;49.326;9.738;2022-08-01T01:38:47;1.10;;;1.00;;
9240;SDS011;53485;49.326;9.738;2022-08-01T01:41:15;1.53;;;1.10;;
9240;SDS011;53485;49.326;9.738;2022-08-01T01:43:41;1.10;;;1.00;;
9240;SDS011;53485;49.326;9.738;2022-08-01T01:46:09;0.90;;;0.90;;
9240;SDS011;53485;49.326;9.738;2022-08-01T01:48:35;1.23;;;1.13;;
9240;SDS011;53485;49.326;9.738;2022-08-01T01:51:02;2.10;;;1.10;;
9240;SDS011;53485;49.326;9.738;2022-08-01T01:53:29;1.97;;;1.00;;
9240;SDS011;53485;49.326;9.738;2022-08-01T01:55:56;1.30;;;1.20;;
9240;SDS011;53485;49.326;9.738;2022-08-01T01:58:22;1.20;;;1.10;;
9240;SDS011;53485;49.326;9.738;2022-08-01T02:00:49;1.20;;;1.10;;
9240;SDS011;53485;49.326;9.738;2022-08-01T02:03:16;1.30;;;1.20;;
9240;SDS011;53485;49.326;9.738;2022-08-01T02:05:43;1.20;;;1.10;;
9240;SDS011;53485;49.326;9.738;2022-08-01T02:08:10;1.37;;;1.27;;
9240;SDS011;53485;49.326;9.738;2022-08-01T02:10:37;1.30;;;1.20;;
9240;SDS011;53485;49.326;9.738;2022-08-01T02:13:05;3.47;;;1.17;;
9240;SDS011;53485;49.326;9.738;2022-08-01T02:15:31;1.60;;;1.30;;
9240;SDS011;53485;49.326;9.738;2022-08-01T02:17:58;2.83;;;1.07;;
9240;SDS011;53485;49.326;9.738;2022-08-01T02:20:26;1.63;;;1.37;;
9240;SDS011;53485;49.326;9.738;2022-08-01T02:22:53;1.33;;;1.23;;
9240;SDS011;53485;49.326;9.738;2022-08-01T02:28:05;2.80;;;1.30;;
9240;SDS011;53485;49.326;9.738;2022-08-01T02:30:32;1.90;;;1.80;;
9240;SDS011;53485;49.326;9.738;2022-08-01T02:32:59;1.50;;;1.40;;
9240;SDS011;53485;49.326;9.738;2022-08-01T02:35:26;1.83;;;1.50;;
9240;SDS011;53485;49.326;9.738;2022-08-01T02:37:52;2.20;;;1.17;;
9240;SDS011;53485;49.326;9.738;2022-08-01T02:40:19;2.43;;;1.47;;
9240;SDS011;53485;49.326;9.738;2022-08-01T02:42:47;3.17;;;1.30;;
9240;SDS011;53485;49.326;9.738;2022-08-01T02:45:13;1.20;;;1.10;;
9240;SDS011;53485;49.326;9.738;2022-08-01T02:47:41;1.87;;;1.67;;
9240;SDS011;53485;49.326;9.738;2022-08-01T02:50:08;1.83;;;1.40;;
9240;SDS011;53485;49.326;9.738;2022-08-01T02:52:35;2.53;;;1.20;;
9240;SDS011;53485;49.326;9.738;2022-08-01T02:55:02;1.63;;;1.53;;
9240;SDS011;53485;49.326;9.738;2022-08-01T02:57:30;1.33;;;1.23;;
9240;SDS011;53485;49.326;9.738;2022-08-01T02:59:57;2.20;;;1.33;;
9240;SDS011;53485;49.326;9.738;2022-08-01T03:02:24;1.63;;;1.53;;
9240;SDS011;53485;49.326;9.738;2022-08-01T03:04:51;1.57;;;1.43;;
9240;SDS011;53485;49.326;9.738;2022-08-01T03:07:18;1.60;;;1.50;;
9240;SDS011;53485;49.326;9.738;2022-08-01T03:09:45;2.90;;;1.30;;
9240;SDS011;53485;49.326;9.738;2022-08-01T03:12:14;2.20;;;1.30;;
9240;SDS011;53485;49.326;9.738;2022-08-01T03:14:41;1.57;;;1.43;;
9240;SDS011;53485;49.326;9.738;2022-08-01T03:17:07;2.70;;;1.60;;
9240;SDS011;53485;49.326;9.738;2022-08-01T03:19:34;2.57;;;1.57;;
9240;SDS011;53485;49.326;9.738;2022-08-01T03:22:01;2.33;;;1.57;;
9240;SDS011;53485;49.326;9.738;2022-08-01T03:24:28;3.40;;;1.50;;
9240;SDS011;53485;49.326;9.738;2022-08-01T03:26:55;3.50;;;1.67;;
9240;SDS011;53485;49.326;9.738;2022-08-01T03:29:22;1.63;;;1.40;;
9240;SDS011;53485;49.326;9.738;2022-08-01T03:31:49;1.93;;;1.27;;
9240;SDS011;53485;49.326;9.738;2022-08-01T03:34:16;1.90;;;1.40;;
9240;SDS011;53485;49.326;9.738;2022-08-01T03:36:46;3.07;;;1.63;;
9240;SDS011;53485;49.326;9.738;2022-08-01T03:39:12;2.73;;;1.30;;
9240;SDS011;53485;49.326;9.738;2022-08-01T03:41:40;2.13;;;1.43;;
9240;SDS011;53485;49.326;9.738;2022-08-01T03:44:09;1.90;;;1.57;;
9240;SDS011;53485;49.326;9.738;2022-08-01T03:46:36;2.00;;;1.60;;
9240;SDS011;53485;49.326;9.738;2022-08-01T03:49:07;2.20;;;1.40;;
9240;SDS011;53485;49.326;9.738;2022-08-01T03:51:33;3.47;;;1.80;;
9240;SDS011;53485;49.326;9.738;2022-08-01T03:54:00;3.77;;;1.60;;
9240;SDS011;53485;49.326;9.738;2022-08-01T03:56:26;1.67;;;1.30;;
9240;SDS011;53485;49.326;9.738;2022-08-01T03:58:53;2.87;;;1.50;;
9240;SDS011;53485;49.326;9.738;2022-08-01T04:01:20;1.77;;;1.40;;
9240;SDS011;53485;49.326;9.738;2022-08-01T04:03:48;1.63;;;1.53;;
9240;SDS011;53485;49.326;9.738;2022-08-01T04:06:14;1.80;;;1.23;;
9240;SDS011;53485;49.326;9.738;2022-08-01T04:08:41;1.43;;;1.30;;
9240;SDS011;53485;49.326;9.738;2022-08-01T04:11:10;1.53;;;1.33;;
9240;SDS011;53485;49.326;9.738;2022-08-01T04:13:36;1.80;;;1.50;;
9240;SDS011;53485;49.326;9.738;2022-08-01T04:16:03;1.60;;;1.50;;
9240;SDS011;53485;49.326;9.738;2022-08-01T04:18:30;1.77;;;1.57;;
9240;SDS011;53485;49.326;9.738;2022-08-01T04:20:58;2.90;;;1.50;;
9240;SDS011;53485;49.326;9.738;2022-08-01T04:23:25;2.43;;;1.63;;
9240;SDS011;53485;49.326;9.738;2022-08-01T04:25:52;2.13;;;1.37;;
9240;SDS011;53485;49.326;9.738;2022-08-01T04:28:19;2.40;;;1.50;;
9240;SDS011;53485;49.326;9.738;2022-08-01T04:30:46;3.20;;;1.70;;
9240;SDS011;53485;49.326;9.738;2022-08-01T04:33:14;2.73;;;1.53;;
9240;SDS011;53485;49.326;9.738;2022-08-01T04:35:41;5.03;;;1.50;;
9240;SDS011;53485;49.326;9.738;2022-08-01T04:38:07;1.70;;;1.60;;
9240;SDS011;53485;49.326;9.738;2022-08-01T04:40:34;5.03;;;1.70;;
9240;SDS011;53485;49.326;9.738;2022-08-01T04:43:00;1.37;;;1.20;;
9240;SDS011;53485;49.326;9.738;2022-08-01T04:45:27;1.63;;;1.40;;
9240;SDS011;53485;49.326;9.738;2022-08-01T04:47:54;2.97;;;1.47;;
9240;SDS011;53485;49.326;9.738;2022-08-01T04:50:21;1.93;;;1.30;;
9240;SDS011;53485;49.326;9.738;2022-08-01T04:52:48;3.33;;;1.60;;
9240;SDS011;53485;49.326;9.738;2022-08-01T04:55:15;2.27;;;1.60;;
9240;SDS011;53485;49.326;9.738;2022-08-01T04:57:44;1.30;;;1.20;;
9240;SDS011;53485;49.326;9.738;2022-08-01T05:00:10;2.23;;;1.20;;
9240;SDS011;53485;49.326;9.738;2022-08-01T05:02:38;2.33;;;1.30;;
9240;SDS011;53485;49.326;9.738;2022-08-01T05:05:05;3.83;;;1.50;;
9240;SDS011;53485;49.326;9.738;2022-08-01T05:07:33;1.57;;;1.40;;
9240;SDS011;53485;49.326;9.738;2022-08-01T05:10:00;3.37;;;2.07;;
9240;SDS011;53485;49.326;9.738;2022-08-01T05:12:27;1.50;;;1.40;;
9240;SDS011;53485;49.326;9.738;2022-08-01T05:14:55;1.60;;;1.50;;
9240;SDS011;53485;49.326;9.738;2022-08-01T05:17:22;1.80;;;1.37;;
9240;SDS011;53485;49.326;9.738;2022-08-01T05:19:49;1.60;;;1.50;;
9240;SDS011;53485;49.326;9.738;2022-08-01T05:22:17;1.63;;;1.50;;
9240;SDS011;53485;49.326;9.738;2022-08-01T05:24:44;1.97;;;1.87;;
9240;SDS011;53485;49.326;9.738;2022-08-01T05:27:11;2.00;;;1.90;;
9240;SDS011;53485;49.326;9.738;2022-08-01T05:29:38;1.90;;;1.63;;
9240;SDS011;53485;49.326;9.738;2022-08-01T05:32:06;5.07;;;1.50;;
9240;SDS011;53485;49.326;9.738;2022-08-01T05:34:33;1.87;;;1.50;;
9240;SDS011;53485;49.326;9.738;2022-08-01T05:37:01;1.70;;;1.60;;
9240;SDS011;53485;49.326;9.738;2022-08-01T05:39:28;5.57;;;1.60;;
9240;SDS011;53485;49.326;9.738;2022-08-01T05:41:55;3.07;;;1.40;;
9240;SDS011;53485;49.326;9.738;2022-08-01T05:44:23;4.03;;;1.77;;
9240;SDS011;53485;49.326;9.738;2022-08-01T05:46:50;2.47;;;1.33;;
9240;SDS011;53485;49.326;9.738;2022-08-01T05:49:17;1.70;;;1.60;;
9240;SDS011;53485;49.326;9.738;2022-08-01T05:51:44;3.13;;;1.47;;
9240;SDS011;53485;49.326;9.738;2022-08-01T05:54:11;1.83;;;1.40;;
9240;SDS011;53485;49.326;9.738;2022-08-01T05:56:39;2.83;;;1.20;;
9240;SDS011;53485;49.326;9.738;2022-08-01T05:59:06;2.77;;;1.50;;
9240;SDS011;53485;49.326;9.738;2022-08-01T06:01:34;2.30;;;1.30;;
9240;SDS011;53485;49.326;9.738;2022-08-01T06:04:01;1.30;;;1.20;;
9240;SDS011;53485;49.326;9.738;2022-08-01T06:06:29;1.10;;;1.00;;
9240;SDS011;53485;49.326;9.738;2022-08-01T06:08:56;1.27;;;1.10;;
9240;SDS011;53485;49.326;9.738;2022-08-01T06:11:23;2.10;;;1.13;;
9240;SDS011;53485;49.326;9.738;2022-08-01T06:13:51;3.33;;;1.27;;
9240;SDS011;53485;49.326;9.738;2022-08-01T06:16:18;2.43;;;1.50;;
9240;SDS011;53485;49.326;9.738;2022-08-01T06:18:46;1.50;;;1.40;;
9240;SDS011;53485;49.326;9.738;2022-08-01T06:21:13;2.00;;;1.10;;
9240;SDS011;53485;49.326;9.738;2022-08-01T06:23:40;2.63;;;1.50;;
9240;SDS011;53485;49.326;9.738;2022-08-01T06:26:08;1.20;;;1.10;;
9240;SDS011;53485;49.326;9.738;2022-08-01T06:28:35;1.73;;;1.60;;
9240;SDS011;53485;49.326;9.738;2022-08-01T06:31:02;1.03;;;1.03;;
9240;SDS011;53485;49.326;9.738;2022-08-01T06:33:29;1.30;;;1.20;;
9240;SDS011;53485;49.326;9.738;2022-08-01T06:35:56;1.60;;;1.40;;
9240;SDS011;53485;49.326;9.738;2022-08-01T06:38:24;1.47;;;1.37;;
9240;SDS011;53485;49.326;9.738;2022-08-01T06:40:51;3.10;;;1.30;;
9240;SDS011;53485;49.326;9.738;2022-08-01T06:43:18;1.20;;;1.10;;
9240;SDS011;53485;49.326;9.738;2022-08-01T06:45:45;1.00;;;1.00;;
9240;SDS011;53485;49.326;9.738;2022-08-01T06:48:13;1.00;;;1.00;;
9240;SDS011;53485;49.326;9.738;2022-08-01T06:50:40;1.37;;;1.13;;
9240;SDS011;53485;49.326;9.738;2022-08-01T06:53:07;1.90;;;0.90;;
9240;SDS011;53485;49.326;9.738;2022-08-01T06:55:35;1.00;;;1.00;;
9240;SDS011;53485;49.326;9.738;2022-08-01T06:58:02;1.97;;;1.00;;
9240;SDS011;53485;49.326;9.738;2022-08-01T07:00:29;1.73;;;1.10;;
9240;SDS011;53485;49.326;9.738;2022-08-01T07:02:57;1.70;;;0.87;;
9240;SDS011;53485;49.326;9.738;2022-08-01T07:05:24;1.97;;;1.03;;
9240;SDS011;53485;49.326;9.738;2022-08-01T07:07:51;0.80;;;0.77;;
9240;SDS011;53485;49.326;9.738;2022-08-01T07:10:18;0.90;;;0.90;;
9240;SDS011;53485;49.326;9.738;2022-08-01T07:12:45;1.33;;;0.80;;
9240;SDS011;53485;49.326;9.738;2022-08-01T07:15:13;1.80;;;0.70;;
9240;SDS011;53485;49.326;9.738;2022-08-01T07:17:41;0.70;;;0.70;;
9240;SDS011;53485;49.326;9.738;2022-08-01T07:20:07;1.00;;;0.90;;
9240;SDS011;53485;49.326;9.738;2022-08-01T07:22:35;1.87;;;0.73;;
9240;SDS011;53485;49.326;9.738;2022-08-01T07:25:02;0.87;;;0.70;;
9240;SDS011;53485;49.326;9.738;2022-08-01T07:27:29;1.00;;;0.70;;
9240;SDS011;53485;49.326;9.738;2022-08-01T07:29:56;1.70;;;0.80;;
9240;SDS011;53485;49.326;9.738;2022-08-01T07:32:23;0.90;;;0.90;;
9240;SDS011;53485;49.326;9.738;2022-08-01T07:34:51;3.33;;;1.00;;
9240;SDS011;53485;49.326;9.738;2022-08-01T07:37:18;0.93;;;0.73;;
9240;SDS011;53485;49.326;9.738;2022-08-01T07:39:45;2.40;;;0.70;;
9240;SDS011;53485;49.326;9.738;2022-08-01T07:42:13;0.93;;;0.80;;
9240;SDS011;53485;49.326;9.738;2022-08-01T07:44:40;1.87;;;0.87;;
9240;SDS011;53485;49.326;9.738;2022-08-01T07:47:08;2.83;;;0.90;;
9240;SDS011;53485;49.326;9.738;2022-08-01T07:49:35;0.80;;;0.80;;
9240;SDS011;53485;49.326;9.738;2022-08-01T07:52:02;0.70;;;0.70;;
9240;SDS011;53485;49.326;9.738;2022-08-01T07:54:31;0.70;;;0.70;;
9240;SDS011;53485;49.326;9.738;2022-08-01T07:56:57;3.93;;;0.80;;
9240;SDS011;53485;49.326;9.738;2022-08-01T07:59:24;1.27;;;0.70;;
9240;SDS011;53485;49.326;9.738;2022-08-01T08:01:52;1.57;;;0.63;;
9240;SDS011;53485;49.326;9.738;2022-08-01T08:04:19;0.63;;;0.63;;
9240;SDS011;53485;49.326;9.738;2022-08-01T08:06:46;1.83;;;0.73;;
9240;SDS011;53485;49.326;9.738;2022-08-01T08:09:14;0.97;;;0.63;;
9240;SDS011;53485;49.326;9.738;2022-08-01T08:11:42;1.43;;;0.70;;
9240;SDS011;53485;49.326;9.738;2022-08-01T08:14:09;0.53;;;0.53;;
9240;SDS011;53485;49.326;9.738;2022-08-01T08:16:36;0.97;;;0.70;;
9240;SDS011;53485;49.326;9.738;2022-08-01T08:19:03;1.07;;;0.60;;
9240;SDS011;53485;49.326;9.738;2022-08-01T08:21:30;0.60;;;0.60;;
9240;SDS011;53485;49.326;9.738;2022-08-01T08:23:57;1.50;;;0.70;;
9240;SDS011;53485;49.326;9.738;2022-08-01T08:26:30;1.47;;;0.50;;
9240;SDS011;53485;49.326;9.738;2022-08-01T08:28:58;0.70;;;0.70;;
9240;SDS011;53485;49.326;9.738;2022-08-01T08:31:25;0.97;;;0.50;;
9240;SDS011;53485;49.326;9.738;2022-08-01T08:33:52;0.97;;;0.60;;
9240;SDS011;53485;49.326;9.738;2022-08-01T08:36:20;1.03;;;0.80;;
9240;SDS011;53485;49.326;9.738;2022-08-01T08:38:47;1.07;;;0.80;;
9240;SDS011;53485;49.326;9.738;2022-08-01T08:41:14;2.40;;;0.80;;
9240;SDS011;53485;49.326;9.738;2022-08-01T08:43:42;1.27;;;0.80;;
9240;SDS011;53485;49.326;9.738;2022-08-01T08:46:09;1.53;;;0.90;;
9240;SDS011;53485;49.326;9.738;2022-08-01T08:48:36;1.40;;;0.73;;
9240;SDS011;53485;49.326;9.738;2022-08-01T08:51:04;1.57;;;0.70;;
9240;SDS011;53485;49.326;9.738;2022-08-01T08:53:31;1.40;;;0.80;;
9240;SDS011;53485;49.326;9.738;2022-08-01T08:55:58;0.97;;;0.70;;
9240;SDS011;53485;49.326;9.738;2022-08-01T08:58:26;1.03;;;0.83;;
9240;SDS011;53485;49.326;9.738;2022-08-01T09:00:53;2.00;;;0.90;;
9240;SDS011;53485;49.326;9.738;2022-08-01T09:03:19;1.13;;;0.80;;
9240;SDS011;53485;49.326;9.738;2022-08-01T09:05:46;2.77;;;0.90;;
9240;SDS011;53485;49.326;9.738;2022-08-01T09:08:14;2.43;;;1.00;;
9240;SDS011;53485;49.326;9.738;2022-08-01T09:10:41;1.47;;;1.10;;
9240;SDS011;53485;49.326;9.738;2022-08-01T09:13:10;1.20;;;0.80;;
9240;SDS011;53485;49.326;9.738;2022-08-01T09:15:37;2.80;;;0.77;;
9240;SDS011;53485;49.326;9.738;2022-08-01T09:18:03;1.17;;;0.70;;
9240;SDS011;53485;49.326;9.738;2022-08-01T09:20:31;1.50;;;0.57;;
9240;SDS011;53485;49.326;9.738;2022-08-01T09:22:58;2.30;;;0.60;;
9240;SDS011;53485;49.326;9.738;2022-08-01T09:25:25;0.87;;;0.53;;
9240;SDS011;53485;49.326;9.738;2022-08-01T09:28:01;2.50;;;0.50;;
9240;SDS011;53485;49.326;9.738;2022-08-01T09:30:19;0.53;;;0.50;;
9240;SDS011;53485;49.326;9.738;2022-08-01T09:32:54;0.80;;;0.60;;
9240;SDS011;53485;49.326;9.738;2022-08-01T09:35:23;2.73;;;0.70;;
9240;SDS011;53485;49.326;9.738;2022-08-01T09:38:26;0.60;;;0.60;;
9240;SDS011;53485;49.326;9.738;2022-08-01T09:40:44;0.77;;;0.70;;
9240;SDS011;53485;49.326;9.738;2022-08-01T09:43:11;1.33;;;0.60;;
9240;SDS011;53485;49.326;9.738;2022-08-01T09:45:38;0.97;;;0.87;;
9240;SDS011;53485;49.326;9.738;2022-08-01T09:48:06;0.90;;;0.70;;
9240;SDS011;53485;49.326;9.738;2022-08-01T09:50:38;0.90;;;0.53;;
9240;SDS011;53485;49.326;9.738;2022-08-01T09:53:05;1.33;;;0.60;;
9240;SDS011;53485;49.326;9.738;2022-08-01T09:55:32;0.53;;;0.50;;
9240;SDS011;53485;49.326;9.738;2022-08-01T09:58:00;0.70;;;0.60;;
9240;SDS011;53485;49.326;9.738;2022-08-01T10:00:27;0.77;;;0.60;;
9240;SDS011;53485;49.326;9.738;2022-08-01T10:02:55;0.60;;;0.60;;
9240;SDS011;53485;49.326;9.738;2022-08-01T10:05:32;2.15;;;0.68;;
9240;SDS011;53485;49.326;9.738;2022-08-01T10:08:01;0.68;;;0.60;;
9240;SDS011;53485;49.326;9.738;2022-08-01T10:10:28;1.45;;;0.70;;
9240;SDS011;53485;49.326;9.738;2022-08-01T10:12:56;2.55;;;0.70;;
9240;SDS011;53485;49.326;9.738;2022-08-01T10:15:23;1.37;;;0.60;;
9240;SDS011;53485;49.326;9.738;2022-08-01T10:17:52;1.27;;;0.75;;
9240;SDS011;53485;49.326;9.738;2022-08-01T10:20:20;1.90;;;0.80;;
9240;SDS011;53485;49.326;9.738;2022-08-01T10:22:47;0.73;;;0.70;;
9240;SDS011;53485;49.326;9.738;2022-08-01T10:25:15;0.70;;;0.70;;
9240;SDS011;53485;49.326;9.738;2022-08-01T10:27:42;0.70;;;0.70;;
9240;SDS011;53485;49.326;9.738;2022-08-01T10:30:10;0.70;;;0.70;;
9240;SDS011;53485;49.326;9.738;2022-08-01T10:32:38;0.93;;;0.90;;
9240;SDS011;53485;49.326;9.738;2022-08-01T10:35:05;0.80;;;0.70;;
9240;SDS011;53485;49.326;9.738;2022-08-01T10:37:34;0.67;;;0.67;;
9240;SDS011;53485;49.326;9.738;2022-08-01T10:40:00;1.67;;;0.65;;
9240;SDS011;53485;49.326;9.738;2022-08-01T10:42:28;1.05;;;0.70;;
9240;SDS011;53485;49.326;9.738;2022-08-01T10:44:56;0.65;;;0.65;;
9240;SDS011;53485;49.326;9.738;2022-08-01T10:47:25;3.10;;;0.70;;
9240;SDS011;53485;49.326;9.738;2022-08-01T10:49:51;1.08;;;0.60;;
9240;SDS011;53485;49.326;9.738;2022-08-01T10:52:18;0.70;;;0.70;;
9240;SDS011;53485;49.326;9.738;2022-08-01T10:54:46;0.57;;;0.57;;
9240;SDS011;53485;49.326;9.738;2022-08-01T10:57:13;1.23;;;0.60;;
9240;SDS011;53485;49.326;9.738;2022-08-01T10:59:47;1.77;;;0.70;;
9240;SDS011;53485;49.326;9.738;2022-08-01T11:02:31;0.50;;;0.50;;
9240;SDS011;53485;49.326;9.738;2022-08-01T11:05:00;1.52;;;0.60;;
9240;SDS011;53485;49.326;9.738;2022-08-01T11:07:35;0.70;;;0.60;;
9240;SDS011;53485;49.326;9.738;2022-08-01T11:12:37;0.62;;;0.60;;
9240;SDS011;53485;49.326;9.738;2022-08-01T11:17:43;1.02;;;0.50;;
9240;SDS011;53485;49.326;9.738;2022-08-01T11:20:11;2.00;;;0.47;;
9240;SDS011;53485;49.326;9.738;2022-08-01T11:25:17;0.55;;;0.55;;
9240;SDS011;53485;49.326;9.738;2022-08-01T11:27:45;1.27;;;0.50;;
9240;SDS011;53485;49.326;9.738;2022-08-01T11:32:56;1.05;;;0.40;;
9240;SDS011;53485;49.326;9.738;2022-08-01T11:35:23;0.85;;;0.50;;
9240;SDS011;53485;49.326;9.738;2022-08-01T11:37:51;1.75;;;0.55;;
9240;SDS011;53485;49.326;9.738;2022-08-01T11:40:19;1.55;;;0.50;;
9240;SDS011;53485;49.326;9.738;2022-08-01T11:42:47;1.17;;;0.50;;
9240;SDS011;53485;49.326;9.738;2022-08-01T11:45:14;0.73;;;0.60;;
9240;SDS011;53485;49.326;9.738;2022-08-01T11:47:44;1.67;;;0.60;;
9240;SDS011;53485;49.326;9.738;2022-08-01T11:52:56;0.55;;;0.55;;
9240;SDS011;53485;49.326;9.738;2022-08-01T11:55:17;0.60;;;0.60;;
9240;SDS011;53485;49.326;9.738;2022-08-01T11:57:45;0.50;;;0.50;;
9240;SDS011;53485;49.326;9.738;2022-08-01T12:00:14;3.65;;;0.60;;
9240;SDS011;53485;49.326;9.738;2022-08-01T12:02:40;0.68;;;0.60;;
9240;SDS011;53485;49.326;9.738;2022-08-01T12:05:09;0.60;;;0.50;;
9240;SDS011;53485;49.326;9.738;2022-08-01T12:07:36;0.50;;;0.50;;
9240;SDS011;53485;49.326;9.738;2022-08-01T12:10:05;0.70;;;0.52;;
9240;SDS011;53485;49.326;9.738;2022-08-01T12:12:33;0.47;;;0.40;;
9240;SDS011;53485;49.326;9.738;2022-08-01T12:15:03;4.22;;;0.60;;
9240;SDS011;53485;49.326;9.738;2022-08-01T12:17:37;0.55;;;0.50;;
9240;SDS011;53485;49.326;9.738;2022-08-01T12:20:03;1.48;;;0.40;;
9240;SDS011;53485;49.326;9.738;2022-08-01T12:22:31;1.45;;;0.50;;
9240;SDS011;53485;49.326;9.738;2022-08-01T12:25:05;0.90;;;0.45;;
9240;SDS011;53485;49.326;9.738;2022-08-01T12:27:41;1.37;;;0.50;;
9240;SDS011;53485;49.326;9.738;2022-08-01T12:30:08;3.90;;;0.60;;
9240;SDS011;53485;49.326;9.738;2022-08-01T12:32:36;3.62;;;0.60;;
9240;SDS011;53485;49.326;9.738;2022-08-01T12:35:05;0.50;;;0.50;;
9240;SDS011;53485;49.326;9.738;2022-08-01T12:37:37;0.57;;;0.57;;
9240;SDS011;53485;49.326;9.738;2022-08-01T12:42:38;1.40;;;0.62;;
9240;SDS011;53485;49.326;9.738;2022-08-01T12:45:04;0.50;;;0.50;;
9240;SDS011;53485;49.326;9.738;2022-08-01T12:47:33;1.10;;;0.50;;
9240;SDS011;53485;49.326;9.738;2022-08-01T12:50:00;0.95;;;0.50;;
9240;SDS011;53485;49.326;9.738;2022-08-01T12:52:27;0.50;;;0.50;;
9240;SDS011;53485;49.326;9.738;2022-08-01T12:54:59;0.50;;;0.50;;
9240;SDS011;53485;49.326;9.738;2022-08-01T12:57:26;1.42;;;0.50;;
9240;SDS011;53485;49.326;9.738;2022-08-01T13:00:04;0.95;;;0.60;;
9240;SDS011;53485;49.326;9.738;2022-08-01T13:02:31;0.60;;;0.60;;
9240;SDS011;53485;49.326;9.738;2022-08-01T13:04:57;0.40;;;0.40;;
9240;SDS011;53485;49.326;9.738;2022-08-01T13:10:04;1.15;;;0.50;;
9240;SDS011;53485;49.326;9.738;2022-08-01T13:12:32;1.05;;;0.50;;
9240;SDS011;53485;49.326;9.738;2022-08-01T13:15:14;0.95;;;0.50;;
9240;SDS011;53485;49.326;9.738;2022-08-01T13:17:29;0.50;;;0.50;;
9240;SDS011;53485;49.326;9.738;2022-08-01T13:19:59;0.40;;;0.40;;
9240;SDS011;53485;49.326;9.738;2022-08-01T13:22:31;0.40;;;0.40;;
9240;SDS011;53485;49.326;9.738;2022-08-01T13:27:43;1.67;;;0.45;;
9240;SDS011;53485;49.326;9.738;2022-08-01T13:30:13;0.95;;;0.50;;
9240;SDS011;53485;49.326;9.738;2022-08-01T13:32:40;5.45;;;1.15;;
9240;SDS011;53485;49.326;9.738;2022-08-01T13:35:09;1.20;;;0.57;;
9240;SDS011;53485;49.326;9.738;2022-08-01T13:37:36;0.50;;;0.40;;
9240;SDS011;53485;49.326;9.738;2022-08-01T13:40:03;0.85;;;0.50;;
9240;SDS011;53485;49.326;9.738;2022-08-01T13:42:32;0.73;;;0.50;;
9240;SDS011;53485;49.326;9.738;2022-08-01T13:45:00;1.23;;;0.50;;
9240;SDS011;53485;49.326;9.738;2022-08-01T13:47:27;0.62;;;0.50;;
9240;SDS011;53485;49.326;9.738;2022-08-01T13:49:55;3.35;;;0.50;;
9240;SDS011;53485;49.326;9.738;2022-08-01T13:52:23;1.58;;;0.50;;
9240;SDS011;53485;49.326;9.738;2022-08-01T13:54:51;0.37;;;0.37;;
9240;SDS011;53485;49.326;9.738;2022-08-01T13:57:19;0.70;;;0.50;;
9240;SDS011;53485;49.326;9.738;2022-08-01T13:59:46;0.57;;;0.40;;
9240;SDS011;53485;49.326;9.738;2022-08-01T14:02:14;1.42;;;0.50;;
9240;SDS011;53485;49.326;9.738;2022-08-01T14:04:42;1.33;;;0.55;;
9240;SDS011;53485;49.326;9.738;2022-08-01T14:07:10;0.40;;;0.40;;
9240;SDS011;53485;49.326;9.738;2022-08-01T14:09:38;0.80;;;0.50;;
9240;SDS011;53485;49.326;9.738;2022-08-01T14:12:05;0.50;;;0.50;;
9240;SDS011;53485;49.326;9.738;2022-08-01T14:14:33;0.60;;;0.60;;
9240;SDS011;53485;49.326;9.738;2022-08-01T14:17:01;0.85;;;0.50;;
9240;SDS011;53485;49.326;9.738;2022-08-01T14:19:29;0.35;;;0.35;;
9240;SDS011;53485;49.326;9.738;2022-08-01T14:21:56;0.55;;;0.40;;
9240;SDS011;53485;49.326;9.738;2022-08-01T14:24:24;0.52;;;0.50;;
9240;SDS011;53485;49.326;9.738;2022-08-01T14:26:51;0.50;;;0.50;;
9240;SDS011;53485;49.326;9.738;2022-08-01T14:29:19;1.17;;;0.50;;
9240;SDS011;53485;49.326;9.738;2022-08-01T14:31:47;2.05;;;0.40;;
9240;SDS011;53485;49.326;9.738;2022-08-01T14:34:15;0.50;;;0.50;;
9240;SDS011;53485;49.326;9.738;2022-08-01T14:36:43;0.62;;;0.50;;
9240;SDS011;53485;49.326;9.738;2022-08-01T14:39:11;1.15;;;0.50;;
9240;SDS011;53485;49.326;9.738;2022-08-01T14:41:38;0.52;;;0.50;;
9240;SDS011;53485;49.326;9.738;2022-08-01T14:44:06;1.08;;;0.40;;
9240;SDS011;53485;49.326;9.738;2022-08-01T14:46:34;2.15;;;0.50;;
9240;SDS011;53485;49.326;9.738;2022-08-01T14:49:02;1.45;;;0.50;;
9240;SDS011;53485;49.326;9.738;2022-08-01T14:51:30;0.80;;;0.40;;
9240;SDS011;53485;49.326;9.738;2022-08-01T14:53:58;0.50;;;0.50;;
9240;SDS011;53485;49.326;9.738;2022-08-01T14:56:26;0.85;;;0.50;;
9240;SDS011;53485;49.326;9.738;2022-08-01T14:58:53;0.90;;;0.50;;
9240;SDS011;53485;49.326;9.738;2022-08-01T15:01:21;0.62;;;0.35;;
9240;SDS011;53485;49.326;9.738;2022-08-01T15:03:49;0.40;;;0.40;;
9240;SDS011;53485;49.326;9.738;2022-08-01T15:06:17;4.30;;;0.90;;
9240;SDS011;53485;49.326;9.738;2022-08-01T15:08:45;0.50;;;0.50;;
9240;SDS011;53485;49.326;9.738;2022-08-01T15:11:13;0.88;;;0.50;;
9240;SDS011;53485;49.326;9.738;2022-08-01T15:13:41;0.70;;;0.40;;
9240;SDS011;53485;49.326;9.738;2022-08-01T15:16:09;2.22;;;0.40;;
9240;SDS011;53485;49.326;9.738;2022-08-01T15:18:36;0.75;;;0.50;;
9240;SDS011;53485;49.326;9.738;2022-08-01T15:21:04;0.43;;;0.43;;
9240;SDS011;53485;49.326;9.738;2022-08-01T15:23:31;0.65;;;0.50;;
9240;SDS011;53485;49.326;9.738;2022-08-01T15:25:59;0.40;;;0.40;;
9240;SDS011;53485;49.326;9.738;2022-08-01T15:28:27;1.40;;;0.50;;